Time;durP1;ratioP1;P1;durP2;ratioP2;P2;SDS_P1;SDS_P2;PMS_P1;PMS_P2;Temp;Humidity;BMP_temperature;BMP_pressure;BME280_temperature;BME280_humidity;BME280_pressure;Samples;Min_cycle;Max_cycle;Signal;HPM_P1;HPM_P2
2023/05/10 00:02:23;;;;;;;6.60;4.57;;;;;;;10.10;100.00;95427.63;4998032;28;20230;-77
2023/05/10 00:04:48;;;;;;;7.23;4.80;;;;;;;10.04;100.00;95430.97;5006046;28;20714;-76
2023/05/10 00:07:14;;;;;;;8.80;4.77;;;;;;;10.10;100.00;95428.41;4982873;28;20226;-76
2023/05/10 00:09:39;;;;;;;7.80;5.33;;;;;;;10.23;100.00;95427.78;4987362;28;20238;-77
2023/05/10 00:12:05;;;;;;;8.27;5.47;;;;;;;10.25;100.00;95417.94;4981692;28;20239;-77
2023/05/10 00:14:31;;;;;;;8.60;5.93;;;;;;;10.40;100.00;95423.13;4968390;28;20321;-77
2023/05/10 00:16:56;;;;;;;7.50;5.63;;;;;;;10.09;100.00;95416.34;5009113;28;20281;-78
2023/05/10 00:19:22;;;;;;;8.47;6.43;;;;;;;10.10;100.00;95411.94;4995613;28;20239;-77
2023/05/10 00:21:47;;;;;;;9.30;6.33;;;;;;;10.10;100.00;95420.56;5005669;28;20637;-77
2023/05/10 00:24:13;;;;;;;10.23;6.43;;;;;;;10.26;100.00;95416.97;4986244;28;20277;-77
2023/05/10 00:26:38;;;;;;;10.40;6.87;;;;;;;10.21;100.00;95419.31;4988936;28;20234;-77
2023/05/10 00:29:04;;;;;;;8.77;6.27;;;;;;;10.27;100.00;95418.56;4980462;28;20250;-77
2023/05/10 00:31:29;;;;;;;8.23;6.27;;;;;;;10.12;100.00;95416.03;4994679;28;20288;-76
2023/05/10 00:33:55;;;;;;;8.90;6.60;;;;;;;10.12;100.00;95412.59;4966057;28;20235;-76
2023/05/10 00:36:21;;;;;;;8.67;6.60;;;;;;;10.04;100.00;95412.66;4988237;28;20234;-78
2023/05/10 00:38:46;;;;;;;9.40;6.13;;;;;;;10.01;100.00;95416.44;4975964;28;20746;-76
2023/05/10 00:41:11;;;;;;;8.80;6.73;;;;;;;10.02;100.00;95409.41;4988751;28;20762;-76
2023/05/10 00:43:37;;;;;;;10.63;6.67;;;;;;;9.95;100.00;95411.16;4982198;28;20238;-76
2023/05/10 00:46:03;;;;;;;9.83;6.67;;;;;;;10.10;100.00;95401.47;5004211;28;20242;-76
2023/05/10 00:48:29;;;;;;;10.03;7.10;;;;;;;10.05;100.00;95406.44;4962673;28;20237;-76
2023/05/10 00:50:55;;;;;;;10.23;7.07;;;;;;;10.07;100.00;95400.03;4997430;28;20702;-77
2023/05/10 00:53:21;;;;;;;10.63;7.33;;;;;;;10.11;100.00;95411.78;4995402;28;20234;-77
2023/05/10 00:55:46;;;;;;;10.93;6.97;;;;;;;9.92;100.00;95403.66;4987903;28;20230;-77
2023/05/10 00:58:12;;;;;;;9.07;7.10;;;;;;;9.76;100.00;95409.09;5008382;28;20374;-77
2023/05/10 01:00:37;;;;;;;8.93;7.20;;;;;;;10.09;100.00;95400.66;4984314;28;20707;-76
2023/05/10 01:03:03;;;;;;;10.07;7.33;;;;;;;9.95;100.00;95398.88;4998839;28;20231;-76
2023/05/10 01:05:28;;;;;;;10.33;7.70;;;;;;;10.14;100.00;95400.13;4967260;28;20352;-76
2023/05/10 01:07:54;;;;;;;9.87;7.37;;;;;;;9.96;100.00;95404.91;5003948;28;20230;-77
2023/05/10 01:10:19;;;;;;;10.73;7.83;;;;;;;9.97;100.00;95396.09;4996820;28;20227;-76
2023/05/10 01:12:45;;;;;;;11.20;7.77;;;;;;;10.05;100.00;95399.38;4993517;28;20246;-76
2023/05/10 01:15:11;;;;;;;8.40;6.83;;;;;;;10.14;100.00;95394.91;4983158;28;20257;-77
2023/05/10 01:17:37;;;;;;;9.17;7.07;;;;;;;9.99;100.00;95392.28;4980625;28;20682;-77
2023/05/10 01:20:03;;;;;;;8.30;6.70;;;;;;;9.96;100.00;95394.44;4965589;28;20242;-77
2023/05/10 01:23:20;;;;;;;9.10;6.20;;;;;;;9.99;100.00;95391.47;5006837;28;20678;-77
2023/05/10 01:26:08;;;;;;;8.53;6.60;;;;;;;10.06;100.00;95387.94;5011515;28;20235;-75
2023/05/10 01:28:48;;;;;;;7.63;5.83;;;;;;;9.98;100.00;95388.03;5015213;28;20307;-76
2023/05/10 01:31:35;;;;;;;7.33;5.77;;;;;;;10.02;100.00;95385.88;5013963;28;20238;-75
2023/05/10 01:34:16;;;;;;;7.10;6.00;;;;;;;9.99;100.00;95384.44;5011598;28;20773;-78
2023/05/10 01:36:55;;;;;;;9.43;5.80;;;;;;;10.03;100.00;95387.50;4987140;28;20297;-76
2023/05/10 01:39:32;;;;;;;7.37;5.73;;;;;;;10.00;100.00;95383.47;4992613;28;20251;-77
2023/05/10 01:42:06;;;;;;;7.03;5.80;;;;;;;10.12;100.00;95381.19;5010159;28;20229;-76
2023/05/10 01:44:36;;;;;;;7.97;6.17;;;;;;;10.09;100.00;95376.31;4994151;28;20241;-77
2023/05/10 01:47:07;;;;;;;7.07;5.43;;;;;;;10.08;100.00;95374.66;4979868;28;20312;-76
2023/05/10 01:49:37;;;;;;;7.33;5.50;;;;;;;9.94;100.00;95371.09;4978990;28;20231;-76
2023/05/10 01:52:10;;;;;;;6.73;5.33;;;;;;;10.15;100.00;95370.34;4995080;28;20757;-77
2023/05/10 01:54:44;;;;;;;6.90;5.60;;;;;;;10.21;100.00;95374.03;4978296;28;20235;-76
2023/05/10 01:57:11;;;;;;;7.07;4.97;;;;;;;10.00;100.00;95373.00;4983293;28;20654;-76
2023/05/10 01:59:40;;;;;;;7.93;5.20;;;;;;;10.11;100.00;95375.16;4987123;28;20238;-76
2023/05/10 02:02:06;;;;;;;7.70;5.37;;;;;;;10.02;100.00;95383.28;4990131;28;20245;-77
2023/05/10 02:04:31;;;;;;;6.20;5.30;;;;;;;9.97;100.00;95375.97;4997501;28;20234;-77
2023/05/10 02:06:56;;;;;;;6.17;5.30;;;;;;;10.04;100.00;95376.84;4987301;28;20372;-76
2023/05/10 02:09:22;;;;;;;6.80;5.30;;;;;;;10.04;100.00;95376.03;4969180;28;20241;-75
2023/05/10 02:11:48;;;;;;;6.63;5.50;;;;;;;10.04;100.00;95376.03;4977640;28;20956;-76
2023/05/10 02:14:13;;;;;;;8.10;5.50;;;;;;;9.96;100.00;95373.53;4976656;28;20239;-75
2023/05/10 02:16:38;;;;;;;9.17;5.30;;;;;;;10.02;100.00;95383.28;4969768;28;20253;-76
2023/05/10 02:19:04;;;;;;;8.50;5.50;;;;;;;9.99;100.00;95378.41;4982828;28;20385;-76
2023/05/10 02:21:30;;;;;;;7.17;4.90;;;;;;;9.82;100.00;95385.66;4964576;28;20531;-77
2023/05/10 02:23:57;;;;;;;7.37;5.33;;;;;;;9.91;100.00;95378.53;4995073;28;20314;-77
2023/05/10 02:26:22;;;;;;;6.40;5.00;;;;;;;9.79;100.00;95382.59;4983394;28;20317;-77
2023/05/10 02:28:47;;;;;;;7.03;4.93;;;;;;;9.78;100.00;95381.78;4986363;28;20222;-76
2023/05/10 02:31:13;;;;;;;6.00;5.10;;;;;;;9.76;100.00;95388.19;4980915;28;20238;-76
2023/05/10 02:33:39;;;;;;;7.20;5.23;;;;;;;9.63;100.00;95388.00;4990782;28;20242;-76
2023/05/10 02:36:05;;;;;;;7.87;4.80;;;;;;;9.81;100.00;95386.66;5007707;28;20234;-77
2023/05/10 02:38:31;;;;;;;8.77;4.77;;;;;;;9.70;100.00;95383.69;4990990;28;20240;-78
2023/05/10 02:40:56;;;;;;;7.03;4.70;;;;;;;9.53;100.00;95377.06;5006611;28;20230;-76
2023/05/10 02:43:22;;;;;;;8.00;4.90;;;;;;;9.68;100.00;95385.66;4998473;28;20230;-76
2023/05/10 02:45:47;;;;;;;7.63;4.80;;;;;;;9.70;100.00;95384.50;4982419;28;20226;-76
2023/05/10 02:48:13;;;;;;;7.57;4.80;;;;;;;9.58;100.00;95382.56;4983215;28;20607;-76
2023/05/10 02:50:38;;;;;;;7.47;4.80;;;;;;;9.42;98.89;95389.56;4998375;28;20226;-77
2023/05/10 02:53:08;;;;;;;7.07;4.87;;;;;;;9.17;100.00;95377.75;4995239;28;20848;-77
2023/05/10 02:55:36;;;;;;;9.97;4.90;;;;;;;9.13;100.00;95371.28;4975071;28;20238;-77
2023/05/10 02:58:02;;;;;;;8.90;5.07;;;;;;;9.37;100.00;95373.63;4990110;28;20364;-76
2023/05/10 03:00:27;;;;;;;6.90;5.10;;;;;;;9.21;100.00;95368.59;4998534;28;20330;-77
2023/05/10 03:02:53;;;;;;;8.00;5.20;;;;;;;9.05;99.86;95379.19;4963729;28;20258;-77
2023/05/10 03:05:19;;;;;;;9.80;5.20;;;;;;;9.26;100.00;95379.31;4996123;28;20312;-77
2023/05/10 03:07:44;;;;;;;7.27;4.83;;;;;;;9.27;100.00;95386.16;4998024;28;20373;-77
2023/05/10 03:10:10;;;;;;;8.13;5.00;;;;;;;9.12;100.00;95387.94;4974956;28;20634;-77
2023/05/10 03:12:42;;;;;;;11.47;5.40;;;;;;;9.13;100.00;95383.53;4976058;28;20230;-77
2023/05/10 03:15:18;;;;;;;9.57;5.20;;;;;;;9.21;99.55;95391.28;4978037;28;20743;-76
2023/05/10 03:18:06;;;;;;;11.47;5.13;;;;;;;9.19;99.39;95391.47;4995894;28;20234;-78
2023/05/10 03:20:55;;;;;;;7.83;4.97;;;;;;;9.05;98.58;95389.63;4994854;28;20313;-77
2023/05/10 03:23:32;;;;;;;11.13;5.30;;;;;;;9.04;99.51;95388.03;5003091;28;20372;-78
2023/05/10 03:25:57;;;;;;;7.13;5.10;;;;;;;8.97;98.67;95378.47;5013056;28;20238;-76
2023/05/10 03:28:23;;;;;;;8.77;4.90;;;;;;;8.95;98.17;95383.88;4985854;28;20763;-77
2023/05/10 03:30:50;;;;;;;9.67;5.13;;;;;;;8.88;97.11;95393.41;4988718;28;20617;-77
2023/05/10 03:33:15;;;;;;;9.60;5.40;;;;;;;8.91;98.22;95393.03;4989316;28;20325;-77
2023/05/10 03:35:41;;;;;;;8.10;5.37;;;;;;;8.87;97.91;95396.19;4979774;28;20227;-77
2023/05/10 03:38:06;;;;;;;8.07;4.90;;;;;;;8.94;96.94;95392.69;4980758;28;20242;-75
2023/05/10 03:40:32;;;;;;;9.40;5.30;;;;;;;9.07;97.29;95395.50;4979210;28;20242;-77
2023/05/10 03:42:58;;;;;;;9.17;5.17;;;;;;;9.11;96.30;95395.94;4967501;28;20226;-77
2023/05/10 03:45:24;;;;;;;7.70;4.87;;;;;;;8.98;96.85;95393.16;4967884;28;20472;-76
2023/05/10 03:47:49;;;;;;;8.17;5.23;;;;;;;8.78;96.81;95396.28;4992776;28;20225;-77
2023/05/10 03:50:15;;;;;;;8.67;4.63;;;;;;;8.79;97.87;95400.47;4983515;28;20719;-76
2023/05/10 03:52:44;;;;;;;8.00;4.80;;;;;;;8.84;97.19;95399.94;4993487;28;20230;-76
2023/05/10 03:55:09;;;;;;;8.13;5.07;;;;;;;8.75;97.07;95399.22;4987332;28;20931;-78
2023/05/10 03:57:35;;;;;;;8.67;5.10;;;;;;;8.67;96.82;95403.69;4987032;28;20257;-78
2023/05/10 04:00:01;;;;;;;7.77;4.83;;;;;;;8.61;99.15;95404.41;4998483;28;21121;-77
2023/05/10 04:02:26;;;;;;;9.30;4.90;;;;;;;8.83;96.67;95416.63;4981432;28;20233;-77
2023/05/10 04:04:51;;;;;;;10.37;5.30;;;;;;;8.74;96.14;95415.06;4978271;28;20226;-78
2023/05/10 04:07:17;;;;;;;7.87;4.83;;;;;;;8.72;96.85;95410.00;5004599;28;20243;-78
2023/05/10 04:09:43;;;;;;;7.53;5.10;;;;;;;8.68;97.68;95410.53;4997270;28;20679;-77
2023/05/10 04:12:09;;;;;;;11.90;5.67;;;;;;;8.67;97.33;95411.50;4968022;28;20252;-78
2023/05/10 04:14:35;;;;;;;9.40;5.30;;;;;;;8.62;96.97;95416.47;4978382;28;20646;-78
2023/05/10 04:17:00;;;;;;;8.83;5.27;;;;;;;8.81;98.28;95411.56;4996892;28;20223;-77
2023/05/10 04:19:29;;;;;;;9.73;5.17;;;;;;;8.72;96.47;95422.22;4977947;28;20253;-78
2023/05/10 04:21:55;;;;;;;8.90;5.57;;;;;;;8.52;97.82;95423.72;4970549;28;20236;-79
2023/05/10 04:24:20;;;;;;;11.60;5.33;;;;;;;8.45;98.14;95414.97;4980733;28;20629;-78
2023/05/10 04:26:46;;;;;;;8.40;5.07;;;;;;;8.79;97.76;95416.16;4980417;28;20634;-78
2023/05/10 04:29:11;;;;;;;8.90;5.20;;;;;;;9.00;97.77;95417.28;4982297;28;20720;-78
2023/05/10 04:31:37;;;;;;;10.20;5.13;;;;;;;8.95;96.94;95415.19;5003510;28;20288;-78
2023/05/10 04:34:03;;;;;;;8.13;4.77;;;;;;;8.75;97.03;95419.28;4997389;28;20654;-77
2023/05/10 04:36:28;;;;;;;8.40;5.00;;;;;;;8.77;96.39;95418.13;4971055;28;20245;-78
2023/05/10 04:38:54;;;;;;;8.23;5.00;;;;;;;8.63;96.20;95418.06;5003722;28;20226;-78
2023/05/10 04:41:20;;;;;;;8.43;5.17;;;;;;;8.66;96.48;95418.56;4994698;28;20241;-78
2023/05/10 04:43:46;;;;;;;8.57;5.00;;;;;;;8.66;96.67;95415.13;5004166;28;20877;-78
2023/05/10 04:46:11;;;;;;;9.97;5.33;;;;;;;8.91;96.77;95420.97;4969496;28;20373;-78
2023/05/10 04:48:37;;;;;;;11.10;5.20;;;;;;;8.70;96.75;95419.81;4988056;28;20230;-79
2023/05/10 04:51:03;;;;;;;12.07;5.63;;;;;;;8.85;95.64;95417.25;4986358;28;20226;-78
2023/05/10 04:53:29;;;;;;;7.67;5.37;;;;;;;8.64;96.35;95415.31;5005583;28;20317;-76
2023/05/10 04:55:54;;;;;;;8.53;5.10;;;;;;;8.97;96.63;95410.63;4967324;28;20609;-77
2023/05/10 04:58:20;;;;;;;8.63;5.13;;;;;;;9.05;95.36;95410.50;4981626;28;20222;-79
2023/05/10 05:00:46;;;;;;;9.13;5.50;;;;;;;8.97;95.66;95418.44;4981769;28;20230;-78
2023/05/10 05:03:11;;;;;;;11.27;5.53;;;;;;;9.02;96.62;95413.50;5005043;28;20234;-76
2023/05/10 05:05:37;;;;;;;8.93;5.33;;;;;;;9.21;96.58;95425.22;4969881;28;20257;-78
2023/05/10 05:08:03;;;;;;;8.07;5.60;;;;;;;9.23;96.18;95418.84;4976778;28;20626;-77
2023/05/10 05:10:28;;;;;;;12.07;5.97;;;;;;;9.27;96.36;95419.28;4999800;28;20227;-76
2023/05/10 05:12:54;;;;;;;10.87;5.53;;;;;;;9.06;95.64;95432.22;4993336;28;20261;-79
2023/05/10 05:15:19;;;;;;;10.27;5.63;;;;;;;8.96;94.60;95429.03;4993181;28;20227;-77
2023/05/10 05:17:45;;;;;;;8.97;6.07;;;;;;;9.08;95.05;95428.44;4971414;28;20222;-77
2023/05/10 05:20:11;;;;;;;9.93;6.37;;;;;;;9.30;97.27;95430.19;4985013;28;20587;-77
2023/05/10 05:22:37;;;;;;;9.43;5.97;;;;;;;9.21;95.14;95426.06;4985939;28;20795;-78
2023/05/10 05:25:03;;;;;;;12.57;6.23;;;;;;;9.03;95.83;95425.56;4987692;28;20253;-78
2023/05/10 05:27:28;;;;;;;10.37;6.30;;;;;;;9.27;95.93;95425.31;4980220;28;20238;-78
2023/05/10 05:29:54;;;;;;;10.73;6.00;;;;;;;9.21;94.96;95433.88;4964010;28;20308;-78
2023/05/10 05:32:20;;;;;;;9.90;6.20;;;;;;;8.92;96.30;95426.00;4985333;28;20266;-78
2023/05/10 05:34:45;;;;;;;10.80;6.57;;;;;;;9.01;96.85;95435.38;5004828;28;20234;-78
2023/05/10 05:37:20;;;;;;;13.47;6.77;;;;;;;9.06;96.64;95434.84;4979436;28;20238;-79
2023/05/10 05:39:46;;;;;;;12.20;6.60;;;;;;;8.76;96.08;95441.78;4962738;28;20703;-79
2023/05/10 05:42:12;;;;;;;10.77;6.50;;;;;;;8.98;97.51;95433.09;4988318;28;20234;-79
2023/05/10 05:44:37;;;;;;;11.87;6.77;;;;;;;8.87;97.87;95433.53;4986803;28;20234;-79
2023/05/10 05:47:03;;;;;;;14.93;7.13;;;;;;;8.94;98.11;95433.63;4961922;28;20239;-78
2023/05/10 05:49:28;;;;;;;12.70;7.07;;;;;;;8.82;97.89;95449.72;4976925;28;21054;-78
2023/05/10 05:51:54;;;;;;;12.43;6.73;;;;;;;9.09;98.15;95445.75;4985714;28;20276;-78
2023/05/10 05:54:19;;;;;;;12.10;6.80;;;;;;;9.00;97.69;95446.81;5000636;28;20252;-79
2023/05/10 05:56:45;;;;;;;12.47;7.00;;;;;;;9.12;98.04;95445.38;4968213;28;20222;-79
2023/05/10 05:59:11;;;;;;;11.60;6.67;;;;;;;9.23;98.26;95455.41;5002394;28;20296;-79
2023/05/10 06:01:36;;;;;;;9.30;6.10;;;;;;;8.97;97.51;95447.16;5006132;28;20676;-79
2023/05/10 06:04:02;;;;;;;10.60;6.53;;;;;;;8.97;98.28;95448.94;5010542;28;20231;-78
2023/05/10 06:06:28;;;;;;;12.30;6.47;;;;;;;8.86;98.19;95447.56;4978914;28;20247;-79
2023/05/10 06:08:53;;;;;;;13.57;7.23;;;;;;;8.95;98.26;95446.53;5009481;28;20230;-79
2023/05/10 06:11:20;;;;;;;13.00;6.80;;;;;;;8.99;96.94;95453.00;4993037;28;20234;-78
2023/05/10 06:13:45;;;;;;;11.20;6.87;;;;;;;9.01;97.86;95461.47;4991766;28;20305;-80
2023/05/10 06:16:11;;;;;;;12.03;6.97;;;;;;;9.11;97.57;95456.81;4968212;28;20245;-79
2023/05/10 06:18:37;;;;;;;10.97;7.00;;;;;;;9.04;96.12;95449.88;4983170;28;20333;-79
2023/05/10 06:21:02;;;;;;;12.47;6.70;;;;;;;8.92;97.45;95457.31;4992814;28;20270;-78
2023/05/10 06:23:28;;;;;;;12.83;6.63;;;;;;;9.12;97.90;95455.03;4968243;28;20249;-78
2023/05/10 06:25:54;;;;;;;11.50;6.43;;;;;;;8.99;97.74;95458.22;4976783;28;20880;-81
2023/05/10 06:28:19;;;;;;;11.90;6.40;;;;;;;8.96;97.62;95463.78;4988057;28;20725;-79
2023/05/10 06:30:45;;;;;;;13.53;6.40;;;;;;;9.28;98.20;95458.28;5005216;28;20305;-78
2023/05/10 06:33:10;;;;;;;11.23;6.30;;;;;;;9.16;97.37;95464.13;4968009;28;20238;-78
2023/05/10 06:35:36;;;;;;;11.93;6.60;;;;;;;9.31;96.61;95454.53;4964098;28;20300;-81
2023/05/10 06:38:02;;;;;;;10.27;6.17;;;;;;;9.43;95.36;95466.16;4967850;28;20223;-79
2023/05/10 06:40:27;;;;;;;9.73;6.20;;;;;;;9.21;95.24;95464.41;4991907;28;20693;-80
2023/05/10 06:42:53;;;;;;;9.77;6.20;;;;;;;9.01;96.11;95458.88;4995626;28;20230;-80
2023/05/10 06:45:18;;;;;;;11.63;6.03;;;;;;;9.25;95.82;95463.88;4991555;28;20230;-79
2023/05/10 06:47:43;;;;;;;10.30;6.30;;;;;;;9.35;95.40;95459.22;4975233;28;20226;-78
2023/05/10 06:50:09;;;;;;;9.63;6.33;;;;;;;9.60;95.82;95461.56;4990779;28;20225;-79
2023/05/10 06:52:35;;;;;;;12.40;6.50;;;;;;;9.30;94.68;95458.94;4986340;28;20777;-79
2023/05/10 06:55:01;;;;;;;12.87;7.23;;;;;;;9.62;95.08;95462.19;4986144;28;20230;-77
2023/05/10 06:57:26;;;;;;;12.47;6.50;;;;;;;9.72;94.31;95467.97;4996488;28;20227;-79
2023/05/10 06:59:52;;;;;;;13.07;6.47;;;;;;;9.80;94.52;95467.84;4992090;28;20229;-78
2023/05/10 07:02:18;;;;;;;9.73;6.40;;;;;;;9.78;94.24;95470.66;4980120;28;20437;-79
2023/05/10 07:04:43;;;;;;;9.13;6.13;;;;;;;9.74;92.88;95469.41;4989949;28;20230;-78
2023/05/10 07:07:08;;;;;;;9.67;6.10;;;;;;;9.64;93.57;95473.28;4997792;28;20575;-78
2023/05/10 07:09:34;;;;;;;10.17;6.37;;;;;;;9.68;94.43;95479.75;4972129;28;20262;-79
2023/05/10 07:12:01;;;;;;;9.07;6.30;;;;;;;9.79;93.46;95476.72;4956290;28;20645;-80
2023/05/10 07:14:27;;;;;;;12.43;6.47;;;;;;;9.83;93.38;95470.13;4973041;28;20263;-78
2023/05/10 07:16:52;;;;;;;11.37;6.30;;;;;;;9.83;92.51;95470.13;4958125;28;20619;-78
2023/05/10 07:19:18;;;;;;;9.17;6.17;;;;;;;9.87;92.31;95473.97;4955394;28;20232;-79
2023/05/10 07:21:43;;;;;;;11.30;6.20;;;;;;;9.91;90.97;95470.81;4972201;28;20223;-79
2023/05/10 07:24:09;;;;;;;12.27;6.63;;;;;;;9.97;91.98;95477.13;4989129;28;20227;-78
2023/05/10 07:26:34;;;;;;;13.60;7.17;;;;;;;9.97;90.71;95483.19;4940469;28;20756;-79
2023/05/10 07:29:00;;;;;;;14.47;6.30;;;;;;;9.88;89.12;95473.81;4966688;28;20235;-78
2023/05/10 07:31:25;;;;;;;11.87;7.00;;;;;;;9.81;91.07;95485.19;4971292;28;20232;-79
2023/05/10 07:33:51;;;;;;;12.87;6.70;;;;;;;9.98;89.85;95484.78;4969572;28;20230;-78
2023/05/10 07:36:16;;;;;;;13.03;6.90;;;;;;;9.93;92.76;95483.72;4977268;28;20224;-79
2023/05/10 07:38:42;;;;;;;10.90;6.60;;;;;;;9.96;89.50;95491.19;4966315;28;20235;-78
2023/05/10 07:41:07;;;;;;;15.73;7.40;;;;;;;10.01;89.34;95496.69;4968777;28;21085;-78
2023/05/10 07:43:33;;;;;;;15.50;7.40;;;;;;;9.97;89.12;95492.81;4972220;28;20709;-79
2023/05/10 07:45:59;;;;;;;17.90;7.50;;;;;;;10.00;89.66;95502.94;4955101;28;20742;-78
2023/05/10 07:48:25;;;;;;;15.40;8.07;;;;;;;10.01;91.46;95488.84;4957927;28;20310;-78
2023/05/10 07:50:51;;;;;;;13.17;7.50;;;;;;;10.03;89.36;95484.28;4972734;28;20227;-72
2023/05/10 07:53:16;;;;;;;14.43;8.70;;;;;;;10.17;91.09;95483.47;4953442;28;20235;-71
2023/05/10 07:55:42;;;;;;;11.23;7.30;;;;;;;10.11;87.66;95484.16;4939913;28;20837;-73
2023/05/10 07:58:07;;;;;;;16.47;8.40;;;;;;;10.15;88.91;95495.91;4970762;28;20685;-72
2023/05/10 08:00:33;;;;;;;12.20;7.50;;;;;;;10.12;88.36;95488.44;4971541;28;20236;-72
2023/05/10 08:02:58;;;;;;;13.27;8.67;;;;;;;10.30;88.52;95496.69;4985588;28;20227;-74
2023/05/10 08:05:24;;;;;;;15.47;9.20;;;;;;;10.26;89.35;95497.25;4944561;28;20236;-72
2023/05/10 08:07:49;;;;;;;12.07;7.93;;;;;;;10.06;88.24;95500.41;4982427;28;20259;-71
2023/05/10 08:10:15;;;;;;;16.20;8.40;;;;;;;10.17;89.40;95496.56;4992208;28;20292;-72
2023/05/10 08:12:40;;;;;;;10.73;7.70;;;;;;;10.26;87.80;95499.84;4990141;28;20291;-72
2023/05/10 08:15:09;;;;;;;13.23;7.53;;;;;;;10.26;86.62;95495.44;5009480;28;20306;-71
2023/05/10 08:17:35;;;;;;;15.90;8.20;;;;;;;10.34;87.38;95495.31;4979839;28;20254;-71
2023/05/10 08:20:00;;;;;;;15.97;8.17;;;;;;;10.37;87.44;95491.53;4987461;28;20289;-72
2023/05/10 08:22:26;;;;;;;14.03;7.60;;;;;;;10.27;86.60;95498.88;4986971;28;20822;-72
2023/05/10 08:24:52;;;;;;;14.30;9.00;;;;;;;10.41;88.89;95496.22;4971033;28;20234;-72
2023/05/10 08:27:17;;;;;;;13.87;8.00;;;;;;;10.36;87.96;95495.97;4977775;28;20635;-72
2023/05/10 08:29:42;;;;;;;10.20;7.00;;;;;;;10.23;86.76;95501.03;4980600;28;20741;-72
2023/05/10 08:32:08;;;;;;;13.13;8.50;;;;;;;10.41;88.41;95498.03;5004360;28;20242;-74
2023/05/10 08:34:33;;;;;;;13.00;8.40;;;;;;;10.51;87.62;95498.53;5004373;28;20630;-72
2023/05/10 08:36:59;;;;;;;12.97;8.77;;;;;;;10.61;88.57;95499.88;4976908;28;20231;-72
2023/05/10 08:39:24;;;;;;;14.93;8.30;;;;;;;10.59;88.52;95506.28;4975977;28;20229;-73
2023/05/10 08:41:51;;;;;;;14.73;8.57;;;;;;;10.57;91.12;95506.47;4989135;28;20230;-73
2023/05/10 08:44:18;;;;;;;14.93;9.27;;;;;;;10.68;90.40;95500.75;4970479;28;20365;-72
2023/05/10 08:46:44;;;;;;;11.67;8.30;;;;;;;10.58;91.87;95504.69;4964322;28;20280;-72
2023/05/10 08:49:10;;;;;;;14.17;8.13;;;;;;;10.54;92.15;95508.63;4979240;28;20237;-72
2023/05/10 08:51:44;;;;;;;13.83;8.93;;;;;;;10.68;91.52;95495.50;4970863;28;20231;-72
2023/05/10 08:54:10;;;;;;;14.13;9.03;;;;;;;10.84;92.61;95504.94;4958165;28;20708;-73
2023/05/10 08:56:37;;;;;;;13.10;9.00;;;;;;;10.87;93.33;95509.00;5004487;28;20230;-72
2023/05/10 08:59:03;;;;;;;14.23;8.40;;;;;;;10.79;91.58;95507.31;4991343;28;20223;-72
2023/05/10 09:01:28;;;;;;;12.40;8.20;;;;;;;10.82;91.48;95512.97;4964032;28;20254;-72
2023/05/10 09:03:54;;;;;;;13.03;8.27;;;;;;;10.66;91.44;95507.97;4979099;28;20222;-72
2023/05/10 09:06:19;;;;;;;15.27;8.57;;;;;;;10.97;89.68;95509.47;4981834;28;20230;-72
2023/05/10 09:08:45;;;;;;;13.20;9.07;;;;;;;11.05;90.48;95504.94;4967120;28;20720;-72
2023/05/10 09:11:11;;;;;;;13.43;8.87;;;;;;;10.96;91.45;95505.25;4957308;28;20236;-74
2023/05/10 09:13:37;;;;;;;14.37;8.87;;;;;;;11.03;91.03;95504.31;4977939;28;20227;-72
2023/05/10 09:16:03;;;;;;;14.37;8.83;;;;;;;10.90;90.74;95500.75;4971997;28;20306;-72
2023/05/10 09:18:28;;;;;;;13.20;8.80;;;;;;;10.75;89.35;95503.44;4952808;28;20334;-71
2023/05/10 09:20:54;;;;;;;14.47;9.30;;;;;;;10.89;90.35;95502.56;4950877;28;20661;-71
2023/05/10 09:23:19;;;;;;;13.47;8.47;;;;;;;10.72;88.25;95504.59;4981337;28;20596;-72
2023/05/10 09:25:45;;;;;;;12.60;8.80;;;;;;;10.87;88.26;95496.69;4956323;28;20235;-72
2023/05/10 09:28:11;;;;;;;13.47;8.00;;;;;;;10.72;89.06;95496.75;4980539;28;20231;-72
2023/05/10 09:30:36;;;;;;;13.57;9.33;;;;;;;11.03;91.07;95499.09;4942323;28;20236;-71
2023/05/10 09:33:02;;;;;;;15.77;9.80;;;;;;;11.13;88.17;95490.91;4970106;28;20330;-71
2023/05/10 09:35:30;;;;;;;15.80;8.93;;;;;;;11.04;88.68;95494.63;4940470;28;20251;-72
2023/05/10 09:38:04;;;;;;;14.17;8.90;;;;;;;11.11;89.41;95485.84;4955100;28;20263;-72
2023/05/10 09:40:29;;;;;;;13.40;8.70;;;;;;;10.88;88.50;95493.09;4955001;28;20697;-72
2023/05/10 09:42:58;;;;;;;13.53;8.53;;;;;;;11.04;88.93;95490.22;4956284;28;20285;-72
2023/05/10 09:45:25;;;;;;;15.03;9.90;;;;;;;11.08;89.21;95496.69;4963778;28;20246;-72
2023/05/10 09:47:51;;;;;;;14.13;9.17;;;;;;;11.21;89.46;95483.72;4937904;28;20621;-72
2023/05/10 09:50:16;;;;;;;14.37;7.50;;;;;;;10.92;86.20;95493.50;4972788;28;20232;-72
2023/05/10 09:52:48;;;;;;;13.50;7.37;;;;;;;10.80;86.08;95482.72;4971974;28;20223;-72
2023/05/10 09:55:14;;;;;;;13.50;8.17;;;;;;;11.07;87.83;95470.69;4973357;28;20235;-74
2023/05/10 09:57:40;;;;;;;12.60;7.53;;;;;;;11.05;86.35;95491.03;4956707;28;20263;-73
2023/05/10 10:00:06;;;;;;;12.50;8.53;;;;;;;11.17;86.51;95481.66;4952693;28;20314;-72
2023/05/10 10:02:36;;;;;;;16.30;8.13;;;;;;;11.35;86.62;95479.38;4952457;28;20259;-72
2023/05/10 10:05:02;;;;;;;11.80;8.10;;;;;;;11.34;85.58;95472.53;4955192;28;20223;-72
2023/05/10 10:07:28;;;;;;;14.70;8.00;;;;;;;11.22;87.13;95477.50;4956850;28;20247;-72
2023/05/10 10:09:53;;;;;;;14.73;7.43;;;;;;;11.30;86.29;95468.66;4992043;28;20239;-72
2023/05/10 10:12:20;;;;;;;11.53;7.17;;;;;;;11.50;84.78;95473.06;4974610;28;20247;-72
2023/05/10 10:14:47;;;;;;;10.77;7.13;;;;;;;11.26;83.91;95457.75;4964699;28;20246;-73
2023/05/10 10:17:13;;;;;;;15.03;8.00;;;;;;;11.53;87.28;95464.00;4964500;28;20273;-72
2023/05/10 10:19:38;;;;;;;20.40;7.70;;;;;;;11.53;86.15;95458.75;4965994;28;20235;-73
2023/05/10 10:22:04;;;;;;;11.63;7.40;;;;;;;11.73;83.99;95456.25;4978903;28;20238;-73
2023/05/10 10:24:29;;;;;;;13.67;6.77;;;;;;;11.52;82.49;95455.31;4964870;28;20314;-72
2023/05/10 10:26:57;;;;;;;12.87;7.83;;;;;;;11.70;84.51;95454.84;4982555;28;20231;-72
2023/05/10 10:29:44;;;;;;;11.07;6.67;;;;;;;11.74;84.15;95463.16;4955560;28;20228;-72
2023/05/10 10:32:33;;;;;;;11.67;7.03;;;;;;;11.72;83.74;95458.09;4957302;28;20346;-72
2023/05/10 10:34:59;;;;;;;10.77;7.00;;;;;;;11.77;82.85;95458.34;4974952;28;20228;-73
2023/05/10 10:37:42;;;;;;;11.83;7.20;;;;;;;11.72;85.79;95462.53;4966174;28;20366;-72
2023/05/10 10:40:34;;;;;;;12.90;7.30;;;;;;;11.80;84.81;95459.72;4969202;28;20220;-72
2023/05/10 10:43:38;;;;;;;14.57;7.77;;;;;;;11.86;83.80;95458.97;4974491;28;20231;-72
2023/05/10 10:46:14;;;;;;;10.43;6.90;;;;;;;11.93;84.59;95458.00;4964160;28;20235;-72
2023/05/10 10:48:40;;;;;;;13.07;8.40;;;;;;;11.85;84.55;95458.16;4948883;28;21291;-72
2023/05/10 10:51:06;;;;;;;13.93;7.30;;;;;;;11.76;84.82;95461.94;4954598;28;20728;-72
2023/05/10 10:53:31;;;;;;;11.70;7.07;;;;;;;11.71;83.49;95461.72;4966130;28;20228;-72
2023/05/10 10:56:10;;;;;;;11.93;7.60;;;;;;;11.84;84.24;95461.81;4961860;28;20769;-72
2023/05/10 10:58:36;;;;;;;13.20;8.20;;;;;;;11.93;85.11;95459.81;4983059;28;20234;-72
2023/05/10 11:01:12;;;;;;;12.07;6.90;;;;;;;11.94;83.20;95457.00;4968092;28;20241;-72
2023/05/10 11:03:38;;;;;;;11.00;7.00;;;;;;;11.76;85.15;95456.72;4977999;28;20379;-72
2023/05/10 11:06:03;;;;;;;10.67;6.60;;;;;;;11.61;83.15;95458.59;4978104;28;20336;-71
2023/05/10 11:08:29;;;;;;;14.37;6.70;;;;;;;11.75;84.33;95455.06;4988970;28;20239;-71
2023/05/10 11:10:58;;;;;;;11.80;6.73;;;;;;;11.84;83.98;95456.56;4958858;28;20232;-71
2023/05/10 11:13:39;;;;;;;11.37;7.00;;;;;;;11.96;83.48;95452.38;4977461;28;20239;-72
2023/05/10 11:16:19;;;;;;;11.73;7.23;;;;;;;12.12;84.10;95456.47;4966850;28;20236;-71
2023/05/10 11:18:58;;;;;;;9.27;6.43;;;;;;;12.12;82.80;95454.66;4967520;28;20232;-79
2023/05/10 11:21:23;;;;;;;10.57;6.80;;;;;;;11.97;84.45;95451.38;4947473;28;20261;-79
2023/05/10 11:23:50;;;;;;;10.20;6.90;;;;;;;12.21;83.97;95452.66;4955629;28;20761;-80
2023/05/10 11:26:15;;;;;;;12.57;6.87;;;;;;;12.25;83.30;95451.28;4974133;28;20236;-76
2023/05/10 11:28:42;;;;;;;12.13;6.73;;;;;;;12.35;82.27;95459.59;4956242;28;20232;-80
2023/05/10 11:31:07;;;;;;;13.80;6.90;;;;;;;12.14;82.91;95455.28;4983029;28;20231;-79
2023/05/10 11:33:44;;;;;;;9.73;6.37;;;;;;;12.17;83.53;95459.31;4982683;28;20617;-79